Time;durP1;ratioP1;P1;durP2;ratioP2;P2;SDS_P1;SDS_P2;PMS_P1;PMS_P2;Temp;Humidity;BMP_temperature;BMP_pressure;BME280_temperature;BME280_humidity;BME280_pressure;Samples;Min_cycle;Max_cycle;Signal;HPM_P1;HPM_P2
2021/12/08 00:01:12;;;;;;;2.43;0.73;;;4.80;99.90;;;;;;4996493;28;20027;-76
2021/12/08 00:03:38;;;;;;;3.50;0.30;;;4.80;99.90;;;;;;4991282;28;20279;-77
2021/12/08 00:06:04;;;;;;;7.80;1.30;;;4.80;99.90;;;;;;5014976;28;20486;-76
2021/12/08 00:08:32;;;;;;;3.80;0.90;;;4.70;99.90;;;;;;5000839;28;20040;-76
2021/12/08 00:13:33;;;;;;;2.92;0.35;;;4.80;99.90;;;;;;4995595;28;20115;-76
2021/12/08 00:16:01;;;;;;;6.22;0.88;;;4.80;99.90;;;;;;5003836;28;20101;-77
2021/12/08 00:18:29;;;;;;;4.90;0.63;;;4.80;99.90;;;;;;4948392;28;1083131;-76
2021/12/08 00:20:59;;;;;;;8.27;1.15;;;4.70;99.90;;;;;;4994386;28;20276;-76
2021/12/08 00:23:26;;;;;;;4.63;0.38;;;4.70;99.90;;;;;;5013395;28;20450;-77
2021/12/08 00:25:53;;;;;;;1.17;0.35;;;4.70;99.90;;;;;;5010560;28;20058;-76
2021/12/08 00:28:19;;;;;;;7.93;0.70;;;4.80;99.90;;;;;;5014950;28;20053;-77
2021/12/08 00:30:48;;;;;;;10.40;0.88;;;4.80;99.90;;;;;;5013876;28;20386;-76
2021/12/08 00:33:15;;;;;;;3.67;0.80;;;4.80;99.90;;;;;;4999401;28;20478;-76
2021/12/08 00:35:44;;;;;;;3.10;0.73;;;4.80;99.90;;;;;;5000472;28;20386;-77
2021/12/08 00:38:09;;;;;;;3.42;0.60;;;4.80;99.90;;;;;;5007274;28;20022;-77
2021/12/08 00:40:36;;;;;;;3.08;0.80;;;4.80;99.90;;;;;;5008594;28;20030;-76
2021/12/08 00:43:03;;;;;;;1.60;0.70;;;4.80;99.90;;;;;;4997832;28;20051;-77
2021/12/08 00:45:29;;;;;;;3.22;0.73;;;4.70;99.90;;;;;;5006978;28;20084;-77
2021/12/08 00:47:56;;;;;;;2.40;0.80;;;4.80;99.90;;;;;;5008461;28;20030;-79
2021/12/08 00:50:26;;;;;;;3.63;0.90;;;4.80;99.90;;;;;;4996248;28;20602;-77
2021/12/08 00:52:52;;;;;;;1.85;0.43;;;4.90;99.90;;;;;;4995738;28;20034;-77
2021/12/08 00:55:19;;;;;;;9.35;0.82;;;4.80;99.90;;;;;;4977866;28;20026;-77
2021/12/08 00:57:45;;;;;;;1.77;0.77;;;4.90;99.90;;;;;;5003616;28;20030;-77
2021/12/08 01:00:18;;;;;;;2.13;0.65;;;4.90;99.90;;;;;;5006955;28;20033;-78
2021/12/08 01:02:44;;;;;;;3.88;0.75;;;4.90;99.90;;;;;;5014493;28;20022;-79
2021/12/08 01:05:12;;;;;;;5.78;0.50;;;5.00;99.90;;;;;;5006417;28;20406;-77
2021/12/08 01:07:38;;;;;;;1.50;0.40;;;5.00;99.90;;;;;;5010497;28;20073;-76
2021/12/08 01:10:08;;;;;;;1.55;0.47;;;5.00;99.90;;;;;;4995232;28;20030;-77
2021/12/08 01:12:34;;;;;;;1.42;0.60;;;5.00;99.90;;;;;;4976985;28;20034;-77
2021/12/08 01:15:00;;;;;;;1.65;0.60;;;5.10;99.90;;;;;;4993696;28;20375;-76
2021/12/08 01:17:25;;;;;;;2.45;0.80;;;5.20;99.90;;;;;;5012519;28;20181;-77
2021/12/08 01:19:51;;;;;;;3.80;0.70;;;5.20;99.90;;;;;;4980204;28;20026;-76
2021/12/08 01:22:16;;;;;;;2.67;0.47;;;5.30;99.90;;;;;;4997738;28;20034;-77
2021/12/08 01:24:42;;;;;;;4.05;1.17;;;5.30;99.90;;;;;;4991560;28;20041;-77
2021/12/08 01:27:08;;;;;;;3.70;1.02;;;5.30;99.90;;;;;;5011751;28;20026;-77
2021/12/08 01:29:33;;;;;;;4.45;0.73;;;5.40;99.90;;;;;;5004284;28;20427;-76
2021/12/08 01:31:59;;;;;;;3.15;1.02;;;5.50;99.90;;;;;;5013700;28;20021;-76
2021/12/08 01:34:24;;;;;;;2.20;0.75;;;5.50;99.90;;;;;;5003192;28;20391;-77
2021/12/08 01:36:50;;;;;;;1.85;0.50;;;5.60;99.90;;;;;;5003654;28;20033;-77
2021/12/08 01:39:15;;;;;;;3.38;0.70;;;5.70;99.90;;;;;;5002034;28;20378;-78
2021/12/08 01:41:41;;;;;;;1.95;0.93;;;5.70;99.90;;;;;;4994561;28;20034;-77
2021/12/08 01:46:53;;;;;;;2.70;0.52;;;5.80;99.90;;;;;;4999957;28;20045;-77
2021/12/08 01:49:19;;;;;;;4.32;1.05;;;5.70;99.90;;;;;;4994589;28;20474;-77
2021/12/08 01:51:44;;;;;;;2.92;0.70;;;5.80;99.90;;;;;;4994762;28;20026;-77
2021/12/08 01:54:10;;;;;;;0.65;0.57;;;5.80;99.90;;;;;;4994323;28;20489;-77
2021/12/08 01:56:37;;;;;;;3.28;0.80;;;5.80;99.90;;;;;;4987556;28;20025;-77
2021/12/08 01:59:06;;;;;;;4.20;0.98;;;5.80;99.90;;;;;;5003493;28;20019;-77
2021/12/08 02:01:34;;;;;;;2.50;0.98;;;5.90;99.90;;;;;;4976717;28;20459;-77
2021/12/08 02:04:04;;;;;;;3.38;0.80;;;5.90;99.90;;;;;;4994160;28;20022;-77
2021/12/08 02:06:32;;;;;;;5.00;0.88;;;5.90;99.90;;;;;;4995276;28;20022;-77
2021/12/08 02:08:58;;;;;;;1.00;0.50;;;5.90;99.90;;;;;;5010373;28;20061;-77
2021/12/08 02:11:23;;;;;;;4.10;0.60;;;5.90;99.90;;;;;;4995623;28;20418;-77
2021/12/08 02:13:52;;;;;;;6.18;0.43;;;5.90;99.90;;;;;;5009278;28;20030;-77
2021/12/08 02:16:18;;;;;;;1.55;0.90;;;5.90;99.90;;;;;;5013529;28;20010;-77
2021/12/08 02:18:48;;;;;;;3.65;0.47;;;5.90;99.90;;;;;;5013155;28;20040;-77
2021/12/08 02:21:32;;;;;;;4.22;0.90;;;6.00;99.90;;;;;;5015604;28;20097;-78
2021/12/08 02:24:01;;;;;;;5.30;0.50;;;6.00;99.90;;;;;;5014600;28;20030;-77
2021/12/08 02:26:28;;;;;;;1.52;0.60;;;6.00;99.90;;;;;;5015176;28;20084;-76
2021/12/08 02:28:55;;;;;;;2.63;0.70;;;6.00;99.90;;;;;;5015412;28;21607;-77
2021/12/08 02:31:32;;;;;;;3.35;0.40;;;6.00;99.90;;;;;;4997646;28;20030;-77
2021/12/08 02:47:52;;;;;;;0.95;0.70;;;6.10;99.90;;;;;;5015832;28;20386;-77
2021/12/08 02:50:24;;;;;;;2.88;1.00;;;6.10;99.90;;;;;;4998052;28;20034;-77
2021/12/08 02:52:49;;;;;;;1.08;0.73;;;6.10;99.90;;;;;;5014983;28;20032;-77
2021/12/08 02:55:15;;;;;;;3.08;0.90;;;6.20;99.90;;;;;;5015171;28;20023;-78
2021/12/08 02:57:40;;;;;;;2.10;0.70;;;6.20;99.90;;;;;;5014559;28;20028;-78
2021/12/08 03:00:12;;;;;;;7.90;1.00;;;6.20;99.90;;;;;;4995928;28;20474;-78
2021/12/08 03:02:38;;;;;;;5.07;1.17;;;6.30;99.90;;;;;;5013402;28;20103;-77
2021/12/08 03:05:04;;;;;;;2.90;0.60;;;6.20;99.90;;;;;;5013578;28;20474;-77
2021/12/08 03:07:30;;;;;;;2.10;0.98;;;6.20;99.90;;;;;;5014003;28;20378;-77
2021/12/08 03:10:12;;;;;;;2.05;0.82;;;6.30;99.90;;;;;;4995943;28;20052;-77
2021/12/08 03:12:38;;;;;;;5.20;0.60;;;6.20;99.90;;;;;;5013923;28;20018;-77
2021/12/08 03:15:05;;;;;;;3.80;0.57;;;6.30;99.90;;;;;;5013541;28;20097;-77
2021/12/08 03:17:33;;;;;;;5.18;0.70;;;6.30;99.90;;;;;;4996082;28;20026;-78
2021/12/08 03:19:59;;;;;;;3.88;0.80;;;6.30;99.90;;;;;;5014203;28;20026;-79
2021/12/08 03:22:24;;;;;;;4.60;0.73;;;6.30;99.90;;;;;;5013571;28;20089;-77
2021/12/08 03:24:51;;;;;;;5.05;0.90;;;6.30;99.90;;;;;;4989106;28;20023;-76
2021/12/08 03:27:22;;;;;;;8.15;0.98;;;6.30;99.90;;;;;;5003345;28;20024;-76
2021/12/08 03:29:55;;;;;;;4.22;0.60;;;6.30;99.90;;;;;;4979582;28;20026;-76
2021/12/08 03:32:32;;;;;;;4.75;0.95;;;6.30;99.90;;;;;;5009703;28;20041;-77
2021/12/08 03:34:58;;;;;;;3.65;0.43;;;6.30;99.90;;;;;;4995210;28;20026;-77
2021/12/08 03:37:29;;;;;;;4.65;0.85;;;6.40;99.90;;;;;;5016399;28;20029;-78
2021/12/08 03:39:57;;;;;;;2.53;0.77;;;6.40;99.90;;;;;;4997117;28;20022;-77
2021/12/08 03:42:25;;;;;;;2.58;0.63;;;6.40;99.90;;;;;;4980354;28;20034;-77
2021/12/08 03:44:54;;;;;;;2.33;0.30;;;6.40;99.90;;;;;;4999559;28;20034;-78
2021/12/08 03:47:25;;;;;;;1.20;0.13;;;6.40;99.90;;;;;;5016433;28;20045;-77
2021/12/08 03:49:52;;;;;;;3.53;0.52;;;6.40;99.90;;;;;;4979276;28;20487;-78
2021/12/08 03:52:17;;;;;;;3.85;1.15;;;6.40;99.90;;;;;;4979860;28;20129;-77
2021/12/08 03:54:43;;;;;;;3.13;0.25;;;6.40;99.90;;;;;;4998694;28;20526;-77
2021/12/08 03:57:09;;;;;;;6.25;0.85;;;6.40;99.90;;;;;;4999221;28;20064;-77
2021/12/08 03:59:35;;;;;;;4.65;0.60;;;6.40;99.90;;;;;;4995888;28;20018;-77
2021/12/08 04:02:01;;;;;;;5.75;0.35;;;6.40;99.90;;;;;;5008354;28;20056;-77
2021/12/08 04:04:29;;;;;;;6.63;0.30;;;6.30;99.90;;;;;;4998524;28;20026;-76
2021/12/08 04:06:57;;;;;;;1.90;0.30;;;6.40;99.90;;;;;;4997868;28;20027;-77
2021/12/08 04:09:39;;;;;;;7.75;0.30;;;6.40;99.90;;;;;;4980840;28;20506;-77
2021/12/08 04:12:06;;;;;;;4.32;0.30;;;6.30;99.90;;;;;;4980529;28;20030;-77
2021/12/08 04:14:36;;;;;;;5.53;0.38;;;6.40;99.90;;;;;;4998164;28;20073;-77
2021/12/08 04:17:10;;;;;;;4.35;0.38;;;6.40;99.90;;;;;;4980787;28;20022;-77
2021/12/08 04:19:37;;;;;;;3.75;0.40;;;6.40;99.90;;;;;;4981289;28;20030;-75
2021/12/08 04:22:13;;;;;;;7.07;0.45;;;6.40;99.90;;;;;;4980546;28;20031;-77
2021/12/08 04:24:41;;;;;;;2.95;0.40;;;6.30;99.90;;;;;;4981432;28;20049;-77
2021/12/08 04:27:13;;;;;;;5.97;0.93;;;6.40;99.90;;;;;;4998122;28;20114;-77
2021/12/08 04:29:40;;;;;;;4.57;0.10;;;6.40;99.90;;;;;;4997964;28;20030;-78
2021/12/08 04:32:07;;;;;;;5.50;0.13;;;6.40;99.90;;;;;;4980154;28;20395;-77
2021/12/08 04:34:38;;;;;;;5.00;0.63;;;6.40;99.90;;;;;;4997464;28;20023;-78
2021/12/08 04:37:15;;;;;;;2.80;0.25;;;6.40;99.90;;;;;;4980082;28;20026;-77
2021/12/08 04:39:55;;;;;;;5.45;1.02;;;6.30;99.90;;;;;;4980057;28;20134;-78
2021/12/08 04:42:33;;;;;;;7.10;0.88;;;6.30;99.90;;;;;;4980112;28;20038;-76
2021/12/08 04:45:07;;;;;;;6.90;0.70;;;6.30;99.90;;;;;;4978576;28;20025;-77
2021/12/08 04:47:48;;;;;;;3.88;0.40;;;6.40;99.90;;;;;;4995507;28;20026;-77
2021/12/08 04:52:56;;;;;;;4.03;0.32;;;6.40;99.90;;;;;;4996578;28;20117;-76
2021/12/08 05:06:49;;;;;;;5.25;0.52;;;6.20;99.90;;;;;;4996189;28;20110;-78
2021/12/08 05:09:23;;;;;;;2.78;0.03;;;6.20;99.90;;;;;;4996476;28;20026;-77
2021/12/08 05:11:53;;;;;;;1.27;0.00;;;6.20;99.90;;;;;;4995336;28;20064;-76
2021/12/08 05:14:30;;;;;;;3.25;0.40;;;6.10;99.90;;;;;;4995009;28;20383;-76
2021/12/08 05:17:01;;;;;;;5.68;0.20;;;6.10;99.90;;;;;;4995351;28;20109;-76
2021/12/08 05:19:31;;;;;;;2.80;0.57;;;6.00;99.90;;;;;;4988503;28;20409;-76
2021/12/08 05:22:25;;;;;;;4.25;0.43;;;6.00;99.90;;;;;;5014943;28;20025;-76
2021/12/08 05:24:54;;;;;;;6.45;0.25;;;6.00;99.90;;;;;;5014681;28;20161;-78
2021/12/08 05:27:25;;;;;;;;;;;5.90;99.90;;;;;;5015037;28;20018;-76
2021/12/08 05:29:57;;;;;;;3.40;0.57;;;5.80;99.90;;;;;;4997198;28;19905;-77
2021/12/08 05:32:23;;;;;;;1.55;0.15;;;5.80;99.90;;;;;;5014406;28;20061;-76
2021/12/08 05:34:49;;;;;;;6.97;0.08;;;5.80;99.90;;;;;;5014605;28;20032;-77
2021/12/08 05:37:17;;;;;;;1.90;0.00;;;5.70;99.90;;;;;;5014384;28;20069;-77
2021/12/08 05:39:43;;;;;;;7.05;0.22;;;5.70;99.90;;;;;;4996446;28;20029;-77
2021/12/08 05:42:14;;;;;;;2.28;0.30;;;5.70;99.90;;;;;;4996560;28;20022;-76
2021/12/08 05:44:40;;;;;;;5.25;0.47;;;5.70;99.90;;;;;;5014389;28;20033;-77
2021/12/08 05:47:12;;;;;;;4.43;0.10;;;5.70;99.90;;;;;;4996398;28;20141;-77
2021/12/08 05:49:38;;;;;;;2.22;0.20;;;5.60;99.90;;;;;;5014247;28;20084;-76
2021/12/08 05:52:06;;;;;;;3.25;0.65;;;5.50;99.90;;;;;;4996435;28;20113;-77
2021/12/08 05:54:35;;;;;;;3.20;0.20;;;5.50;99.90;;;;;;5014031;28;20383;-76
2021/12/08 05:57:18;;;;;;;3.13;0.00;;;5.40;99.90;;;;;;5014335;28;20021;-76
2021/12/08 05:59:45;;;;;;;3.03;0.08;;;5.30;99.90;;;;;;4996330;28;20032;-76
2021/12/08 06:02:15;;;;;;;5.80;0.30;;;5.30;99.90;;;;;;5014384;28;20018;-77
2021/12/08 06:04:42;;;;;;;1.77;0.10;;;5.30;99.90;;;;;;5014075;28;20079;-76
2021/12/08 06:07:08;;;;;;;3.03;0.00;;;5.30;99.90;;;;;;5014115;28;20034;-76
2021/12/08 06:09:35;;;;;;;1.95;0.03;;;5.20;99.90;;;;;;5014003;28;20029;-78
2021/12/08 06:12:01;;;;;;;2.65;0.10;;;5.20;99.90;;;;;;5013731;28;20053;-77
2021/12/08 06:14:32;;;;;;;7.78;0.00;;;5.10;99.90;;;;;;4995956;28;20025;-77
2021/12/08 06:17:06;;;;;;;1.95;0.20;;;5.10;99.90;;;;;;5014230;28;20383;-77
2021/12/08 06:19:32;;;;;;;3.55;0.30;;;5.00;99.90;;;;;;5014050;28;20475;-77
2021/12/08 06:21:59;;;;;;;6.45;0.63;;;5.00;99.90;;;;;;5013671;28;20022;-77
2021/12/08 06:24:25;;;;;;;4.03;0.08;;;5.00;99.90;;;;;;4996368;28;20098;-77
2021/12/08 06:26:51;;;;;;;11.10;1.00;;;5.00;99.90;;;;;;5013837;28;20058;-77
2021/12/08 06:29:18;;;;;;;2.33;0.32;;;5.00;99.90;;;;;;4996429;28;20060;-78
2021/12/08 06:31:47;;;;;;;8.90;0.22;;;5.00;99.90;;;;;;4996016;28;20117;-77
2021/12/08 06:34:13;;;;;;;1.52;0.00;;;5.00;99.90;;;;;;4995696;28;20026;-77
2021/12/08 06:37:01;;;;;;;2.38;0.17;;;4.20;99.90;;;;;;4995755;28;20395;-77
2021/12/08 06:39:32;;;;;;;2.72;0.10;;;5.00;99.90;;;;;;5014048;28;20097;-78
2021/12/08 06:42:04;;;;;;;3.58;0.13;;;5.00;99.90;;;;;;4995848;28;20014;-76
2021/12/08 06:44:34;;;;;;;2.65;0.03;;;5.00;99.90;;;;;;5013515;28;20049;-76
2021/12/08 06:47:02;;;;;;;7.35;0.55;;;5.00;99.90;;;;;;4995724;28;20474;-76
2021/12/08 06:49:29;;;;;;;4.35;0.00;;;5.00;99.90;;;;;;5013575;28;20026;-77
2021/12/08 06:52:12;;;;;;;3.35;0.00;;;4.90;99.90;;;;;;5013485;28;20386;-76
2021/12/08 06:54:42;;;;;;;5.90;0.05;;;4.90;99.90;;;;;;5014016;28;20172;-77
2021/12/08 06:57:14;;;;;;;2.95;0.35;;;4.80;99.90;;;;;;5013248;28;20018;-77
2021/12/08 06:59:53;;;;;;;7.22;0.50;;;4.80;99.90;;;;;;4995418;28;20033;-76
2021/12/08 07:02:37;;;;;;;2.45;0.00;;;4.70;99.90;;;;;;5013489;28;20498;-76
2021/12/08 07:07:30;;;;;;;1.60;0.00;;;4.70;99.90;;;;;;5013402;28;20034;-76
2021/12/08 07:10:25;;;;;;;3.78;0.22;;;4.70;99.90;;;;;;4997928;28;20041;-77
2021/12/08 07:12:59;;;;;;;7.35;0.28;;;4.70;99.90;;;;;;5013879;28;20034;-77
2021/12/08 07:15:31;;;;;;;4.05;0.10;;;4.60;99.90;;;;;;5017673;28;20104;-77
2021/12/08 07:18:03;;;;;;;6.10;0.17;;;4.60;99.90;;;;;;5017142;28;20030;-77
2021/12/08 07:20:43;;;;;;;3.70;0.20;;;4.60;99.90;;;;;;4999854;28;20026;-75
2021/12/08 07:23:21;;;;;;;5.55;0.10;;;4.70;99.90;;;;;;5017133;28;20479;-77
2021/12/08 07:25:48;;;;;;;2.80;0.05;;;4.70;99.90;;;;;;5016908;28;20026;-77
2021/12/08 07:28:15;;;;;;;6.05;0.55;;;4.80;99.90;;;;;;5016890;28;20057;-76
2021/12/08 07:30:49;;;;;;;4.65;0.00;;;4.70;99.90;;;;;;4998935;28;20550;-75
2021/12/08 07:33:15;;;;;;;4.78;0.20;;;4.60;99.90;;;;;;5016455;28;20113;-76
2021/12/08 07:35:46;;;;;;;5.75;0.10;;;4.60;99.90;;;;;;5016308;28;20109;-76
2021/12/08 07:38:15;;;;;;;2.72;0.30;;;4.60;99.90;;;;;;5016654;28;20064;-76
2021/12/08 07:41:01;;;;;;;2.22;0.00;;;4.70;99.90;;;;;;5016144;28;20014;-76
2021/12/08 07:43:27;;;;;;;5.35;0.55;;;4.70;99.90;;;;;;4998735;28;20049;-75
2021/12/08 07:46:02;;;;;;;2.15;0.35;;;4.60;99.90;;;;;;5016516;28;20560;-75
2021/12/08 07:48:34;;;;;;;9.73;0.47;;;4.60;99.90;;;;;;5016260;28;20372;-76
2021/12/08 07:51:07;;;;;;;7.07;0.00;;;4.60;99.90;;;;;;5016172;28;20036;-75
2021/12/08 07:53:34;;;;;;;9.13;0.20;;;4.60;99.90;;;;;;5016072;28;20037;-75
2021/12/08 07:56:04;;;;;;;1.75;0.38;;;4.60;99.90;;;;;;4998508;28;20022;-75
2021/12/08 07:58:32;;;;;;;2.20;0.10;;;4.60;99.90;;;;;;5016085;28;20055;-75
2021/12/08 08:01:05;;;;;;;4.32;0.15;;;4.60;99.90;;;;;;5016123;28;20014;-75
2021/12/08 08:03:32;;;;;;;7.88;0.30;;;4.60;99.90;;;;;;5016237;28;20101;-75
2021/12/08 08:06:01;;;;;;;2.55;0.10;;;4.60;99.90;;;;;;5015940;28;20030;-76
2021/12/08 08:08:31;;;;;;;7.20;0.93;;;4.60;99.90;;;;;;4998441;28;20026;-78
2021/12/08 08:11:02;;;;;;;8.35;0.57;;;4.50;99.90;;;;;;5016567;28;20105;-77
2021/12/08 08:13:30;;;;;;;6.28;0.40;;;4.50;99.90;;;;;;5015817;28;20517;-77
2021/12/08 08:16:10;;;;;;;7.43;1.40;;;4.40;99.90;;;;;;5016180;28;20022;-77
2021/12/08 08:18:40;;;;;;;7.50;0.80;;;4.50;99.90;;;;;;4998261;28;20073;-76
2021/12/08 08:21:10;;;;;;;6.32;0.00;;;4.40;99.90;;;;;;5015512;28;20022;-76
2021/12/08 08:23:36;;;;;;;4.32;0.00;;;4.40;99.90;;;;;;5014597;28;20021;-76
2021/12/08 08:26:06;;;;;;;2.08;0.08;;;4.40;99.90;;;;;;5009716;28;20026;-77
2021/12/08 08:28:32;;;;;;;5.70;0.47;;;4.50;99.90;;;;;;4978413;28;20022;-76
2021/12/08 08:31:06;;;;;;;6.45;0.10;;;4.40;99.90;;;;;;4995816;28;20503;-76
2021/12/08 08:33:34;;;;;;;3.63;0.10;;;4.50;99.90;;;;;;4995949;28;20019;-76
2021/12/08 08:36:07;;;;;;;3.00;0.10;;;4.50;99.90;;;;;;4978539;28;20018;-77
2021/12/08 08:38:43;;;;;;;6.20;0.10;;;4.50;99.90;;;;;;4978319;28;20026;-76
2021/12/08 08:41:20;;;;;;;4.68;0.20;;;4.60;99.90;;;;;;4978299;28;20022;-77
2021/12/08 08:43:47;;;;;;;7.28;0.00;;;4.70;99.90;;;;;;4995896;28;20445;-77
2021/12/08 08:46:19;;;;;;;4.10;0.10;;;4.80;99.90;;;;;;4995655;28;20146;-76
2021/12/08 08:48:53;;;;;;;3.50;0.25;;;4.80;99.90;;;;;;4995757;28;20491;-76
2021/12/08 08:51:46;;;;;;;3.15;0.10;;;4.90;99.90;;;;;;4978170;28;20033;-76
2021/12/08 08:54:20;;;;;;;1.58;0.00;;;4.90;99.90;;;;;;4978045;28;20525;-76
2021/12/08 08:56:53;;;;;;;0.75;0.03;;;4.90;99.90;;;;;;4995789;28;20029;-76
2021/12/08 08:59:25;;;;;;;4.55;0.30;;;5.00;99.90;;;;;;4995683;28;20030;-77
2021/12/08 09:01:54;;;;;;;8.35;0.45;;;5.10;99.90;;;;;;4995649;28;20080;-75
2021/12/08 09:04:30;;;;;;;4.55;0.22;;;5.10;99.90;;;;;;4995631;28;20105;-76
2021/12/08 09:07:02;;;;;;;4.38;0.47;;;5.10;99.90;;;;;;4978110;28;20033;-75
2021/12/08 09:09:34;;;;;;;1.15;0.10;;;5.10;99.90;;;;;;4995868;28;20029;-75
2021/12/08 09:12:07;;;;;;;3.88;0.13;;;5.20;99.90;;;;;;4996332;28;20034;-78
2021/12/08 09:14:37;;;;;;;4.13;0.35;;;5.20;99.90;;;;;;4978012;28;20037;-77
2021/12/08 09:17:14;;;;;;;1.17;0.15;;;5.20;99.90;;;;;;4977682;28;20019;-75
2021/12/08 09:20:02;;;;;;;2.25;0.00;;;5.20;99.90;;;;;;4995741;28;20022;-76
2021/12/08 09:22:33;;;;;;;6.90;0.00;;;5.20;99.90;;;;;;4995127;28;20539;-76
2021/12/08 09:25:13;;;;;;;5.40;0.05;;;5.20;99.90;;;;;;4995104;28;20045;-76
2021/12/08 09:27:47;;;;;;;6.97;0.10;;;5.20;99.90;;;;;;4995571;28;20110;-77
2021/12/08 09:30:22;;;;;;;7.72;0.88;;;5.30;99.90;;;;;;4995527;28;20041;-75
2021/12/08 09:32:54;;;;;;;8.30;0.00;;;5.40;99.90;;;;;;4976987;28;20029;-76
2021/12/08 09:35:35;;;;;;;2.35;0.10;;;5.50;99.90;;;;;;4977614;28;20034;-76
2021/12/08 09:38:07;;;;;;;3.10;0.00;;;5.50;99.90;;;;;;4995300;28;20028;-76
2021/12/08 09:40:44;;;;;;;4.15;0.00;;;5.60;99.90;;;;;;4977129;28;20364;-76
2021/12/08 09:43:16;;;;;;;3.25;0.00;;;5.50;99.90;;;;;;4994710;28;20061;-75
2021/12/08 09:45:59;;;;;;;4.50;0.00;;;5.60;99.90;;;;;;4995553;28;20117;-76
2021/12/08 09:48:29;;;;;;;3.42;0.00;;;5.60;99.90;;;;;;4994637;28;20022;-76
2021/12/08 09:50:56;;;;;;;6.78;0.20;;;5.60;99.90;;;;;;4976935;28;20023;-76
2021/12/08 09:53:22;;;;;;;5.60;0.15;;;5.70;99.90;;;;;;4977003;28;20026;-76
2021/12/08 09:55:49;;;;;;;2.65;0.20;;;5.70;99.90;;;;;;4994565;28;20027;-76
2021/12/08 09:58:15;;;;;;;3.10;0.10;;;5.80;99.90;;;;;;4977131;28;20387;-75
2021/12/08 10:00:43;;;;;;;4.45;1.00;;;5.80;99.90;;;;;;4976871;28;20169;-75
2021/12/08 10:03:09;;;;;;;7.68;0.40;;;5.90;99.90;;;;;;4994554;28;20061;-75
2021/12/08 10:05:39;;;;;;;1.42;0.10;;;5.90;99.90;;;;;;4994473;28;20027;-75
2021/12/08 10:08:05;;;;;;;0.95;0.03;;;6.00;99.90;;;;;;4995360;28;20026;-75
2021/12/08 10:10:32;;;;;;;3.30;0.00;;;6.00;99.90;;;;;;4994380;28;20034;-75
2021/12/08 10:12:58;;;;;;;3.47;0.50;;;6.00;99.90;;;;;;4976836;28;20050;-76
2021/12/08 10:15:28;;;;;;;4.25;0.00;;;6.00;99.90;;;;;;4994237;28;20057;-75
2021/12/08 10:17:56;;;;;;;4.75;0.30;;;6.10;99.90;;;;;;4976885;28;20034;-75
2021/12/08 10:20:32;;;;;;;2.25;0.00;;;6.10;99.90;;;;;;4976765;28;20022;-75
2021/12/08 10:23:20;;;;;;;5.20;0.70;;;6.10;99.90;;;;;;4994156;28;20022;-76
2021/12/08 10:26:09;;;;;;;1.45;0.00;;;6.10;99.90;;;;;;4994334;28;20053;-76
2021/12/08 10:28:39;;;;;;;;;;;6.00;99.90;;;;;;4994469;28;20069;-75
2021/12/08 10:31:31;;;;;;;2.05;0.10;;;6.00;99.90;;;;;;4993987;28;20001;-76
2021/12/08 10:34:36;;;;;;;6.90;0.30;;;6.00;99.90;;;;;;4994294;28;20027;-77
2021/12/08 10:37:04;;;;;;;2.28;0.00;;;6.00;99.90;;;;;;4993611;28;20041;-76
2021/12/08 10:39:45;;;;;;;3.97;0.00;;;6.10;99.90;;;;;;4994167;28;20027;-76
2021/12/08 10:42:18;;;;;;;3.92;0.47;;;6.10;99.90;;;;;;4994095;28;20037;-76
2021/12/08 10:44:53;;;;;;;3.45;0.43;;;6.10;99.90;;;;;;4995789;28;20018;-76
2021/12/08 10:47:43;;;;;;;6.22;0.73;;;6.10;99.90;;;;;;4997912;28;20092;-76
2021/12/08 10:55:57;;;;;;;0.68;0.05;;;6.20;99.90;;;;;;4998135;28;20040;-76
2021/12/08 10:58:29;;;;;;;2.28;0.00;;;6.30;99.90;;;;;;4997840;28;20030;-76
2021/12/08 11:00:58;;;;;;;2.15;0.15;;;6.30;99.90;;;;;;4981386;28;20505;-76
2021/12/08 11:03:28;;;;;;;;;;;6.40;99.90;;;;;;4980620;28;20550;-76
2021/12/08 11:06:01;;;;;;;2.03;0.00;;;6.40;99.90;;;;;;4997679;28;19906;-76
2021/12/08 11:08:26;;;;;;;2.47;0.10;;;6.50;99.90;;;;;;4998069;28;20027;-76
2021/12/08 11:10:59;;;;;;;3.42;0.00;;;6.40;99.90;;;;;;4997455;28;20372;-76
2021/12/08 11:13:32;;;;;;;3.38;0.30;;;6.40;99.90;;;;;;4980081;28;20030;-75
2021/12/08 11:16:18;;;;;;;0.77;0.13;;;6.50;99.90;;;;;;4998034;28;20022;-75
2021/12/08 11:18:48;;;;;;;1.90;0.28;;;6.40;99.90;;;;;;4997360;28;20125;-76
2021/12/08 11:21:23;;;;;;;1.95;0.00;;;6.30;99.90;;;;;;4997923;28;20026;-75
2021/12/08 11:23:52;;;;;;;2.50;0.50;;;6.40;99.90;;;;;;4997767;28;20034;-76
2021/12/08 11:26:29;;;;;;;0.52;0.10;;;6.30;99.90;;;;;;4980195;28;20522;-76
2021/12/08 11:29:08;;;;;;;0.22;0.03;;;6.30;99.90;;;;;;4997042;28;20033;-75
2021/12/08 11:31:45;;;;;;;2.60;0.30;;;6.30;99.90;;;;;;4997223;28;20076;-75
2021/12/08 11:34:17;;;;;;;1.20;0.20;;;6.30;99.90;;;;;;4979886;28;20418;-76
2021/12/08 11:36:45;;;;;;;1.98;0.57;;;6.40;99.90;;;;;;4980593;28;20031;-75
2021/12/08 11:39:17;;;;;;;3.30;0.40;;;6.50;99.90;;;;;;4980223;28;20484;-76
2021/12/08 11:41:42;;;;;;;0.75;0.50;;;6.50;99.90;;;;;;4997073;28;20397;-76
2021/12/08 11:44:16;;;;;;;2.95;0.30;;;6.60;99.90;;;;;;4979526;28;20031;-75
2021/12/08 11:46:50;;;;;;;3.67;0.30;;;6.60;99.90;;;;;;4997694;28;20026;-77
2021/12/08 11:49:17;;;;;;;1.17;0.30;;;6.60;99.90;;;;;;4996623;28;20372;-75
2021/12/08 11:51:42;;;;;;;2.60;0.85;;;6.70;99.90;;;;;;4996715;28;20037;-75
2021/12/08 11:54:24;;;;;;;4.72;0.52;;;6.70;99.90;;;;;;4997047;28;20113;-74
2021/12/08 11:56:50;;;;;;;5.28;0.82;;;6.90;99.90;;;;;;4996255;28;20026;-75
2021/12/08 11:59:16;;;;;;;5.40;0.32;;;6.90;99.90;;;;;;4996320;28;20057;-75
2021/12/08 12:01:42;;;;;;;1.23;0.20;;;6.90;99.90;;;;;;4996667;28;20506;-75
2021/12/08 12:04:10;;;;;;;15.00;0.30;;;7.00;99.90;;;;;;4996518;28;20026;-75
2021/12/08 12:06:38;;;;;;;3.50;0.43;;;7.10;99.90;;;;;;4978994;28;20487;-74
2021/12/08 12:09:09;;;;;;;0.68;0.17;;;7.10;99.90;;;;;;4978768;28;20266;-75
2021/12/08 12:11:37;;;;;;;5.07;0.77;;;7.10;99.90;;;;;;4978682;28;20054;-75
2021/12/08 12:14:04;;;;;;;2.58;0.30;;;7.10;99.90;;;;;;4996620;28;20030;-75
2021/12/08 12:16:30;;;;;;;1.20;0.13;;;7.20;99.90;;;;;;4996454;28;20098;-76
2021/12/08 12:19:01;;;;;;;3.50;0.25;;;7.20;99.90;;;;;;4978528;28;20053;-75
2021/12/08 12:21:57;;;;;;;5.90;0.32;;;7.20;99.90;;;;;;4996437;28;20042;-74
2021/12/08 12:25:04;;;;;;;0.70;0.20;;;7.20;99.90;;;;;;4960540;28;20462;-75
2021/12/08 12:27:32;;;;;;;2.38;0.20;;;7.20;99.90;;;;;;4973488;28;20081;-75
2021/12/08 12:30:01;;;;;;;1.67;0.35;;;7.20;99.90;;;;;;4995837;28;20445;-75
2021/12/08 12:32:32;;;;;;;5.15;0.20;;;7.20;99.90;;;;;;4995817;28;20030;-75
2021/12/08 12:35:22;;;;;;;3.60;0.10;;;7.40;99.90;;;;;;4996087;28;20459;-75
2021/12/08 12:37:49;;;;;;;1.27;0.20;;;7.40;99.90;;;;;;4996052;28;20494;-75
2021/12/08 12:40:28;;;;;;;2.50;0.10;;;7.50;99.90;;;;;;4995623;28;20015;-75
2021/12/08 12:42:55;;;;;;;;;;;7.40;99.90;;;;;;4996517;28;20059;-75
2021/12/08 12:45:23;;;;;;;4.18;0.20;;;7.50;99.90;;;;;;4995756;28;20259;-75
2021/12/08 12:48:11;;;;;;;2.03;0.40;;;7.60;99.90;;;;;;4995609;28;20056;-75
2021/12/08 12:51:08;;;;;;;4.95;0.60;;;7.60;99.90;;;;;;4995509;28;20034;-75
2021/12/08 12:53:38;;;;;;;3.20;0.00;;;7.50;99.90;;;;;;4996569;28;20032;-75
2021/12/08 12:56:06;;;;;;;3.40;0.57;;;7.60;99.90;;;;;;4995388;28;20018;-75
2021/12/08 12:58:43;;;;;;;1.35;0.32;;;7.60;99.90;;;;;;4977945;28;20545;-74
2021/12/08 13:01:15;;;;;;;1.38;0.10;;;7.60;99.90;;;;;;4995369;28;20050;-75
2021/12/08 13:03:43;;;;;;;2.60;0.70;;;7.60;99.90;;;;;;4995308;28;20027;-74
2021/12/08 13:06:11;;;;;;;0.40;0.10;;;7.70;99.90;;;;;;4995062;28;20065;-75
2021/12/08 13:08:44;;;;;;;3.42;0.10;;;7.80;99.90;;;;;;4977144;28;20491;-75
2021/12/08 13:11:22;;;;;;;7.28;0.95;;;7.90;99.90;;;;;;4995923;28;20018;-74
2021/12/08 13:13:52;;;;;;;2.78;0.13;;;8.00;99.90;;;;;;4995046;28;20037;-75
2021/12/08 13:17:05;;;;;;;1.35;0.10;;;8.00;99.90;;;;;;4978269;28;20134;-75
2021/12/08 13:19:58;;;;;;;0.45;0.22;;;8.00;99.90;;;;;;4989959;28;20048;-75
2021/12/08 13:22:46;;;;;;;1.67;0.00;;;7.90;99.90;;;;;;4977521;28;20022;-74
2021/12/08 13:25:32;;;;;;;1.30;0.15;;;7.70;99.90;;;;;;4977425;28;20030;-74
2021/12/08 13:28:09;;;;;;;6.30;0.20;;;7.60;99.90;;;;;;4977338;28;20442;-75
2021/12/08 13:31:04;;;;;;;5.63;0.40;;;7.50;99.90;;;;;;4994781;28;20049;-75
2021/12/08 13:33:43;;;;;;;5.38;0.73;;;7.40;99.90;;;;;;4986881;28;20042;-74
2021/12/08 13:36:21;;;;;;;3.50;0.77;;;7.40;99.90;;;;;;4994671;28;20431;-75
2021/12/08 13:39:05;;;;;;;2.53;0.87;;;7.40;99.90;;;;;;4977162;28;20058;-74
2021/12/08 13:41:40;;;;;;;2.90;0.50;;;7.40;99.90;;;;;;4995183;28;20018;-74
2021/12/08 13:44:20;;;;;;;1.35;0.22;;;7.30;99.90;;;;;;4994553;28;20037;-75
2021/12/08 13:46:51;;;;;;;3.85;0.30;;;7.20;99.90;;;;;;4976762;28;20418;-75
2021/12/08 13:49:26;;;;;;;4.88;0.40;;;7.20;99.90;;;;;;4976904;28;20026;-75
2021/12/08 13:52:07;;;;;;;4.10;0.20;;;7.20;99.90;;;;;;4976829;28;20480;-75
2021/12/08 13:54:39;;;;;;;1.20;0.20;;;7.20;99.90;;;;;;4995252;28;20120;-75
2021/12/08 13:57:43;;;;;;;1.20;0.52;;;7.10;99.90;;;;;;4976830;28;20065;-75
2021/12/08 14:00:23;;;;;;;4.85;0.50;;;7.10;99.90;;;;;;4983714;28;20038;-75
2021/12/08 14:03:04;;;;;;;2.20;0.10;;;7.00;99.90;;;;;;4994362;28;20471;-75